Hauptseite
METAR-TAF:

METAR-TAF

Flughäfen :

Flughafen Genua

Genua, Italien

Breite: 44-25N, Länge: 008-51E, Höhe: 2 m

Beobachtung

Neuester Wetterbericht von vor 48 Minuten, um 12:50 UTC
Wind 10 kt aus Nord/Nordost
Temperatur 32°C
Luftfeuchtigkeit 38%
Luftdruck 1014 hPa
Sichtweite 10 km oder mehr
Leicht bewölkt in der Höhe von 4000 ft

METAR: LIMJ 061250Z 03010KT 9999 FEW040 32/16 Q1014

Zeit: 15:38 (13:38 UTC)

Prognose

Neuester Wetterbericht von vor 2 Stunden und 38 Minuten, um 11:00 UTC
Gültige Prognose vom 06 um 12 UTC bis 07 um 12 UTC
Wind 12 kt aus Nord/Nordost
Sichtweite 10 km oder mehr
keine Wolken unter 1500 m und keine Kumulonimbus oder Gewitterwolken
Übergehend zu
vom 06 um 18 UTC bis 06 um 20 UTC
Wind 5 kt aus unterschiedlichen Richtungen

TAF: LIMJ 061100Z 0612/0712 03012KT CAVOK BECMG 0618/0620 VRB05KT

Wetterbeobachtungen und Prognosen von mehr als 4000 Flughäfen (METAR und TAF Bericht).

Die verfügbaren Stationen werden durch gelbe und rote Markierungen auf der Karte dargestellt.

Führen Sie die Maus auf sie, um den Namen der Station zu sehen.

Darauf klicken, um die Beobachtung von Wetterbeobachtungen und Prognosen zu sehen.

Um die Karte zu ändern : klicken Sie auf den grünen Tasten mit einem schwarzen Kreuz Zum Vergrößern, auf den grünen Button mit einem Gedankenstrich zu verkleinern, oder auf die grünen Pfeile für benachbarte Karten.


METAR-TAF: